• Join FlightAware (Why Join?)
  • Login
  • US Flag 
12:57PM EDT


 

Airport Tracker/Info


-or-


 

Live Flight TrackerFlight Track Log ✈ DAL110 ✈ 12-Apr-2013 ✈ KATL - KLAX

Flight Track Log - Related Links

Times and Time Zones

All times are in EDT time to prevent confusion due to time zone crossing. See the DAL110 flight status page for this flight to view local times or setup timezone preferences in your user account.

Time Position Orientation Groundspeed Altitude Reporting Facility
EDT Latitude Longitude Course Direction KTS MPH feet Rate Location/Type
08:38AM 33.6470 -84.4620 270° West 173 199 2,600  Level FlightAware
08:39AM 33.6520 -84.4900 282° West 208 239 3,300 1,860 Climbing FlightAware
08:39AM 33.6590 -84.5260 283° West 236 272 4,500 2,700 Climbing FlightAware
08:40AM 33.6660 -84.5580 285° West 245 282 5,800 3,000 Climbing FlightAware
08:40AM 33.6730 -84.5960 282° West 250 288 7,300 3,300 Climbing FlightAware
08:41AM 33.6770 -84.6240 280° West 256 295 8,300 2,820 Climbing FlightAware
08:41AM 33.6860 -84.6760 282° West 265 305 9,900 2,520 Climbing FlightAware
08:42AM 33.6960 -84.7380 281° West 284 327 11,700 1,980 Climbing FlightAware
08:43AM 33.6950 -84.8050 269° West 324 373 12,600 1,800 Climbing FlightAware
08:43AM 33.7050 -84.8820 279° West 350 403 14,300 2,580 Climbing FlightAware
08:44AM 33.7230 -84.9760 283° West 355 409 16,500 3,120 Climbing FlightAware
08:45AM 33.7350 -85.0450 282° West 362 417 18,500 3,120 Climbing FlightAware
08:45AM 33.7490 -85.1260 282° West 367 422 20,400 2,700 Climbing FlightAware
08:46AM 33.7680 -85.2330 282° West 389 448 22,600 1,680 Climbing FlightAware
08:47AM 33.7850 -85.3370 281° West 392 451 23,400 2,640 Climbing FlightAware
08:48AM 33.8010 -85.4290 282° West 392 451 26,800 3,000 Climbing FlightAware
08:49AM 33.8200 -85.5420 281° West 410 472 27,900 1,500 Climbing FlightAware
08:49AM 33.8350 -85.6330 281° West 414 476 29,200 2,160 Climbing FlightAware
08:50AM 33.8740 -85.7720 289° West 426 490 31,700 1,500 Climbing FlightAware
08:51AM 33.8950 -85.8490 288° West 426 490 31,700  Level FlightAware
08:52AM 33.9160 -85.9260 288° West 426 490 31,700 3,480 Level FlightAware
08:52AM 33.9626 -86.0393 296° West 412 474 36,100 5,220 Climbing FlightAware ADS-B
08:53AM 33.9828 -86.1038 291° West 402 463 37,400 1,800 Climbing FlightAware ADS-B
08:53AM 34.0013 -86.1695 289° West 398 458 38,000 240 Climbing FlightAware ADS-B
08:55AM 34.0590 -86.3720 289° West 405 466 38,000  Level FlightAware
08:56AM 34.0920 -86.4920 288° West 402 463 38,000  Level FlightAware
08:57AM 34.0980 -86.5100 292° West 403 464 38,000  Level FlightAware
08:57AM 34.1384 -86.6563 288° West 404 465 38,000  Level FlightAware ADS-B
08:58AM 34.1603 -86.7345 289° West 404 465 38,000  Level FlightAware ADS-B
08:58AM 34.1800 -86.8030 289° West 405 466 38,000  Level FlightAware
08:59AM 34.2180 -86.9420 288° West 399 459 38,000  Level FlightAware
09:00AM 34.2380 -87.0140 289° West 399 459 38,000  Level FlightAware
09:01AM 34.2590 -87.0860 289° West 399 459 38,000  Level FlightAware
09:01AM 34.2790 -87.1570 289° West 399 459 38,000  Level FlightAware
09:02AM 34.3000 -87.2290 289° West 399 459 38,000  Level FlightAware
09:03AM 34.3250 -87.3190 289° West 399 459 38,000  Level FlightAware
09:04AM 34.3450 -87.3910 289° West 399 459 38,000  Level FlightAware
09:04AM 34.3660 -87.4630 289° West 399 459 38,000  Level FlightAware
09:05AM 34.3860 -87.5350 289° West 399 459 38,000  Level FlightAware
09:06AM 34.4070 -87.6070 289° West 399 459 38,000  Level FlightAware
09:06AM 34.4320 -87.6970 289° West 399 459 38,000  Level FlightAware
09:07AM 34.4530 -87.7690 289° West 399 459 38,000  Level FlightAware
09:08AM 34.4730 -87.8410 289° West 399 459 38,000  Level FlightAware
09:08AM 34.4940 -87.9130 290° West 399 459 38,000  Level FlightAware
09:09AM 34.5190 -88.0030 289° West 399 459 38,000  Level FlightAware
09:09AM 34.5611 -88.2136 289° West 406 467 38,000  Level Memphis Center
09:10AM 34.5944 -88.3389 288° West 406 467 38,000  Level Memphis Center
09:11AM 34.6278 -88.4642 288° West 400 460 38,000  Level Memphis Center
09:12AM 34.6631 -88.5997 288° West 389 448 38,000  Level Memphis Center
09:13AM 34.6961 -88.7278 287° West 389 448 38,000  Level Memphis Center
09:14AM 34.7292 -88.8561 287° West 399 459 38,000  Level Memphis Center
09:15AM 34.7639 -88.9869 288° West 399 459 38,000  Level Memphis Center
09:16AM 34.7967 -89.1153 287° West 400 460 38,000  Level Memphis Center
09:17AM 34.8311 -89.2464 288° West 400 460 38,000  Level Memphis Center
09:18AM 34.8636 -89.3750 287° West 400 460 38,000  Level Memphis Center
09:19AM 34.8981 -89.5039 288° West 400 460 38,000  Level Memphis Center
09:20AM 34.9072 -89.6253 275° West 394 453 38,000  Level Memphis Center
09:21AM 34.9161 -89.7747 274° West 399 459 38,000  Level Memphis Center
09:22AM 34.9397 -89.9189 281° West 410 472 38,000  Level Memphis Center
09:23AM 34.9506 -90.0506 276° West 416 479 38,000  Level Memphis Center
09:24AM 34.9592 -90.1822 275° West 404 465 38,000  Level Memphis Center
09:25AM 34.9697 -90.3164 276° West 404 465 38,000  Level Memphis Center
09:26AM 34.9822 -90.4383 277° West 404 465 38,000  Level Memphis Center
09:27AM 34.9906 -90.5750 274° West 404 465 38,000  Level Memphis Center
09:28AM 35.0006 -90.7069 275° West 404 465 38,000  Level Memphis Center
09:29AM 35.0106 -90.8439 275° West 409 471 38,000  Level Memphis Center
09:30AM 35.0225 -90.9808 276° West 409 471 38,000  Level Memphis Center
09:31AM 35.0322 -91.1178 275° West 403 464 38,000  Level Memphis Center
09:32AM 35.0439 -91.2525 276° West 403 464 38,000  Level Memphis Center
09:33AM 35.0531 -91.4022 274° West 403 464 38,000  Level Memphis Center
09:34AM 35.0603 -91.5342 274° West 403 464 38,000  Level Memphis Center
09:35AM 35.0714 -91.6689 276° West 403 464 38,000  Level Memphis Center
09:36AM 35.0803 -91.8061 275° West 403 464 38,000  Level Memphis Center
09:37AM 35.0850 -91.9381 273° West 403 464 38,000  Level Memphis Center
09:38AM 35.0978 -92.0728 277° West 403 464 38,000  Level Memphis Center
09:39AM 35.1042 -92.2100 273° West 403 464 38,000  Level Memphis Center
09:40AM 35.1125 -92.3422 274° West 403 464 38,000  Level Memphis Center
09:41AM 35.1231 -92.4744 276° West 403 464 38,000  Level Memphis Center
09:42AM 35.1289 -92.6117 273° West 403 464 38,000  Level Memphis Center
09:43AM 35.1408 -92.7492 276° West 409 471 38,000  Level Memphis Center
09:44AM 35.1469 -92.8761 273° West 403 464 38,000  Level Memphis Center
09:45AM 35.1567 -93.0086 275° West 398 458 38,000  Level Memphis Center
09:46AM 35.1642 -93.1408 274° West 398 458 38,000  Level Memphis Center
09:52AM 35.2040 -93.9290 274° West 392 451 38,000  Level FlightAware
09:53AM 35.2080 -94.0090 274° West 392 451 38,000  Level FlightAware
09:54AM 35.2150 -94.1420 274° West 390 449 38,000  Level FlightAware
09:55AM 35.2190 -94.2340 273° West 392 451 38,000  Level FlightAware
09:55AM 35.2230 -94.3110 274° West 392 451 38,000  Level FlightAware
09:56AM 35.2280 -94.4200 273° West 396 456 38,000  Level FlightAware
09:57AM 35.2320 -94.5120 273° West 396 456 38,000  Level FlightAware
09:57AM 35.2360 -94.5960 273° West 398 458 38,000  Level FlightAware
09:58AM 35.2400 -94.6880 273° West 400 460 38,000  Level FlightAware
09:59AM 35.2440 -94.7930 273° West 400 460 38,000  Level FlightAware
09:59AM 35.2480 -94.8710 274° West 401 461 38,000  Level FlightAware
10:00AM 35.2520 -94.9790 273° West 401 461 38,000  Level FlightAware
10:01AM 35.2560 -95.0780 273° West 401 461 38,000  Level FlightAware
10:02AM 35.2580 -95.1490 272° West 401 461 38,000  Level FlightAware
10:02AM 35.2610 -95.2460 272° West 401 461 38,000  Level FlightAware
10:03AM 35.2630 -95.3230 272° West 401 461 38,000  Level FlightAware
10:04AM 35.2650 -95.4000 272° West 401 461 38,000  Level FlightAware
10:05AM 35.2680 -95.4960 272° West 401 461 38,000  Level FlightAware
10:05AM 35.2780 -95.6610 274° West 405 466 38,000  Level FlightAware
10:06AM 35.2810 -95.7510 272° West 406 467 38,000  Level FlightAware
10:07AM 35.2840 -95.8320 273° West 406 467 38,000  Level FlightAware
10:07AM 35.2880 -95.9410 273° West 405 466 38,000  Level FlightAware
10:08AM 35.2920 -96.0480 273° West 407 468 38,000  Level FlightAware
10:09AM 35.2940 -96.1390 272° West 409 471 38,000  Level FlightAware
10:09AM 35.2970 -96.2350 272° West 408 470 38,000  Level FlightAware
10:10AM 35.3010 -96.3360 273° West 408 470 38,000  Level FlightAware
10:11AM 35.3030 -96.4140 272° West 408 470 38,000  Level FlightAware
10:11AM 35.3060 -96.5230 272° West 408 470 38,000  Level FlightAware
10:12AM 35.3090 -96.6240 272° West 409 471 38,000  Level FlightAware
10:13AM 35.3110 -96.7160 272° West 409 471 38,000  Level FlightAware
10:14AM 35.3140 -96.8120 272° West 408 470 38,000  Level FlightAware
10:14AM 35.3160 -96.9120 271° West 404 465 38,000  Level FlightAware
10:15AM 35.3180 -96.9870 272° West 404 465 38,000  Level FlightAware
10:16AM 35.3210 -97.1050 272° West 401 461 38,000  Level FlightAware
10:16AM 35.3230 -97.1860 272° West 400 460 38,000  Level FlightAware
10:17AM 35.3250 -97.2810 272° West 399 459 38,000  Level FlightAware
10:18AM 35.3270 -97.3890 271° West 399 459 38,000  Level FlightAware
10:18AM 35.3290 -97.4640 272° West 400 460 38,000  Level FlightAware
10:19AM 35.3310 -97.5750 271° West 401 461 38,000  Level FlightAware
10:20AM 35.3320 -97.6460 271° West 401 461 38,000  Level FlightAware
10:21AM 35.3350 -97.7540 272° West 399 459 38,000  Level FlightAware
10:21AM 35.3360 -97.8630 271° West 402 463 38,000  Level FlightAware
10:22AM 35.3380 -97.9510 272° West 403 464 38,000  Level FlightAware
10:23AM 35.3400 -98.0580 271° West 404 465 38,000  Level FlightAware
10:24AM 35.3410 -98.1560 271° West 404 465 38,000  Level FlightAware
10:24AM 35.3430 -98.2550 271° West 406 467 38,000  Level FlightAware
10:25AM 35.3430 -98.3510 270° West 406 467 38,000  Level FlightAware
10:26AM 35.3430 -98.4290 270° West 406 467 38,000  Level FlightAware
10:26AM 35.3430 -98.5270 270° West 406 467 38,000  Level FlightAware
10:27AM 35.3470 -98.6420 272° West 405 466 38,000  Level FlightAware
10:28AM 35.3470 -98.7400 270° West 405 466 38,000  Level FlightAware
10:29AM 35.3470 -98.8370 270° West 405 466 38,000  Level FlightAware
10:29AM 35.3470 -98.9150 270° West 405 466 38,000  Level FlightAware
10:30AM 35.3470 -98.9940 270° West 405 466 38,000  Level FlightAware
10:31AM 35.3470 -99.0720 270° West 405 466 38,000  Level FlightAware
10:31AM 35.3470 -99.1300 270° West 405 466 38,000  Level FlightAware
10:32AM 35.3470 -99.2280 270° West 405 466 38,000  Level FlightAware
10:33AM 35.3470 -99.3060 270° West 405 466 38,000  Level FlightAware
10:33AM 35.3470 -99.3840 270° West 405 466 38,000  Level FlightAware
10:34AM 35.3470 -99.4620 270° West 405 466 38,000  Level FlightAware
10:35AM 35.3470 -99.5600 270° West 405 466 38,000  Level FlightAware
10:36AM 35.3470 -99.6380 270° West 405 466 38,000  Level FlightAware
10:36AM 35.3470 -99.7160 270° West 405 466 38,000  Level FlightAware
10:37AM 35.3556 -99.9844 270° West 407 468 38,000  Level Albuquerque Center
10:38AM 35.3547 -100.1236 270° West 407 468 38,000  Level Albuquerque Center
10:39AM 35.3550 -100.2653 270° West 412 474 38,000  Level Albuquerque Center
10:40AM 35.3558 -100.4075 270° West 414 476 38,000  Level Albuquerque Center
10:41AM 35.3533 -100.5756 269° West 411 473 38,000  Level Albuquerque Center
10:42AM 35.3528 -100.7197 270° West 414 476 38,000  Level Albuquerque Center
10:43AM 35.3522 -100.8628 270° West 418 481 38,000  Level Albuquerque Center
10:44AM 35.3503 -101.0050 269° West 420 483 38,000  Level Albuquerque Center
10:45AM 35.3492 -101.1472 269° West 419 482 38,000  Level Albuquerque Center
10:46AM 35.3475 -101.2900 269° West 420 483 38,000  Level Albuquerque Center
10:47AM 35.3481 -101.4358 270° West 422 486 38,000  Level Albuquerque Center
10:48AM 35.3464 -101.5778 269° West 417 480 38,000  Level Albuquerque Center
10:49AM 35.3447 -101.7517 269° West 415 478 38,000  Level Albuquerque Center
10:50AM 35.3422 -101.8933 269° West 414 476 38,000  Level Albuquerque Center
10:51AM 35.3361 -102.0397 267° West 412 474 38,000  Level Albuquerque Center
10:52AM 35.3344 -102.1781 269° West 409 471 38,000  Level Albuquerque Center
10:53AM 35.3319 -102.3153 269° West 406 467 38,000  Level Albuquerque Center
10:54AM 35.3281 -102.4531 268° West 407 468 38,000  Level Albuquerque Center
10:55AM 35.3258 -102.5914 269° West 407 468 38,000  Level Albuquerque Center
10:56AM 35.3231 -102.7308 269° West 406 467 38,000  Level Albuquerque Center
10:57AM 35.3192 -102.8939 268° West 407 468 38,000  Level Albuquerque Center
10:59AM 35.3161 -103.0342 269° West 408 470 38,000  Level Albuquerque Center
11:00AM 35.3125 -103.1728 268° West 406 467 38,000  Level Albuquerque Center
11:01AM 35.3081 -103.3133 268° West 408 470 38,000  Level Albuquerque Center
11:02AM 35.3044 -103.4536 268° West 409 471 38,000  Level Albuquerque Center
11:03AM 35.3000 -103.5942 268° West 410 472 38,000  Level Albuquerque Center
11:04AM 35.2961 -103.7339 268° West 409 471 38,000  Level Albuquerque Center
11:05AM 35.2906 -103.8978 268° West 410 472 38,000  Level Albuquerque Center
11:06AM 35.2867 -104.0319 268° West 410 472 38,000  Level Albuquerque Center
11:07AM 35.2817 -104.1714 268° West 410 472 38,000  Level Albuquerque Center
11:08AM 35.2772 -104.3086 268° West 407 468 38,000  Level Albuquerque Center
11:09AM 35.2722 -104.4467 267° West 408 470 38,000  Level Albuquerque Center
11:10AM 35.2647 -104.6106 267° West 409 471 38,000  Level Albuquerque Center
11:11AM 35.2586 -104.7494 267° West 407 468 38,000  Level Albuquerque Center
11:17AM 35.2250 -105.5400 267° West 416 479 38,000  Level FlightAware
11:18AM 35.2190 -105.6830 267° West 417 480 38,000  Level FlightAware
11:18AM 35.2140 -105.7600 265° West 417 480 38,000  Level FlightAware
11:19AM 35.2100 -105.8690 267° West 418 481 38,000  Level FlightAware
11:20AM 35.2050 -105.9700 267° West 418 481 38,000  Level FlightAware
11:20AM 35.1990 -106.0710 266° West 416 479 38,000  Level FlightAware
11:21AM 35.1950 -106.1650 267° West 417 480 38,000  Level FlightAware
11:22AM 35.1890 -106.2680 266° West 418 481 38,000  Level FlightAware
11:22AM 35.1840 -106.3630 266° West 419 482 38,000  Level FlightAware
11:23AM 35.1780 -106.4740 266° West 419 482 38,000 660 Level FlightAware
11:24AM 35.1730 -106.5680 266° West 420 483 39,000 1,260 Climbing FlightAware
11:25AM 35.1680 -106.6710 267° West 425 489 39,800 660 Climbing FlightAware
11:25AM 35.1620 -106.7670 266° West 423 487 40,000 120 Climbing FlightAware
11:26AM 35.1570 -106.8620 266° West 424 488 40,000  Level FlightAware
11:27AM 35.1510 -106.9710 266° West 428 493 40,000  Level FlightAware
11:27AM 35.1450 -107.0710 266° West 430 495 40,000  Level FlightAware
11:28AM 35.1380 -107.1780 265° West 430 495 40,000  Level FlightAware
11:29AM 35.1320 -107.2750 266° West 429 494 40,000  Level FlightAware
11:29AM 35.1270 -107.3670 266° West 427 491 40,000  Level FlightAware
11:30AM 35.1220 -107.4510 266° West 428 493 40,000  Level FlightAware
11:31AM 35.1140 -107.5740 265° West 428 493 40,000  Level FlightAware
11:32AM 35.1070 -107.6830 266° West 428 493 40,000  Level FlightAware
11:32AM 35.1010 -107.7780 266° West 428 493 40,000  Level FlightAware
11:33AM 35.0940 -107.8770 265° West 428 493 40,000  Level FlightAware
11:34AM 35.0880 -107.9780 266° West 428 493 40,000  Level FlightAware
11:34AM 35.0820 -108.0540 265° West 428 493 40,000  Level FlightAware
11:35AM 35.0730 -108.1870 265° West 428 493 40,000  Level FlightAware
11:36AM 35.0660 -108.2940 265° West 428 493 40,000  Level FlightAware
11:37AM 35.0580 -108.4060 265° West 426 490 40,000  Level FlightAware
11:38AM 35.0480 -108.5570 265° West 425 489 40,000  Level FlightAware
11:38AM 35.0390 -108.6750 265° West 424 488 40,000  Level FlightAware
11:39AM 35.0320 -108.7750 265° West 424 488 40,000  Level FlightAware
11:40AM 35.0260 -108.8560 265° West 424 488 40,000  Level FlightAware
11:41AM 35.0200 -108.9370 265° West 424 488 40,000  Level FlightAware
11:41AM 35.0150 -109.0180 266° West 424 488 40,000  Level FlightAware
11:42AM 35.0090 -109.0990 265° West 424 488 40,000  Level FlightAware
11:43AM 35.0030 -109.1800 265° West 424 488 40,000  Level FlightAware
11:43AM 34.9970 -109.2620 265° West 424 488 40,000  Level FlightAware
11:44AM 34.9900 -109.3630 265° West 424 488 40,000  Level FlightAware
11:45AM 34.9840 -109.4440 265° West 424 488 40,000  Level FlightAware
11:45AM 34.9780 -109.5250 265° West 424 488 40,000  Level FlightAware
11:46AM 34.9720 -109.6060 265° West 424 488 40,000  Level FlightAware
11:47AM 34.9670 -109.6870 266° West 424 488 40,000  Level FlightAware
11:48AM 34.9590 -109.7890 265° West 424 488 40,000  Level FlightAware
11:48AM 34.9530 -109.8700 265° West 424 488 40,000  Level FlightAware
11:49AM 34.9228 -110.1336 265° West 430 495 40,000  Level Los Angeles Center
11:49AM 34.9206 -110.2139 268° West 436 502 40,000  Level Albuquerque Center
11:55AM 34.8490 -110.9870 268° West 426 490 40,000  Level FlightAware
11:55AM 34.8420 -111.0620 264° West 426 490 40,000  Level FlightAware
11:56AM 34.8310 -111.1640 263° West 426 490 40,000  Level FlightAware
11:56AM 34.8240 -111.2560 265° West 426 490 40,000  Level FlightAware
11:57AM 34.8120 -111.3830 263° West 426 490 40,000  Level FlightAware
11:58AM 34.8030 -111.4780 263° West 426 490 40,000  Level FlightAware
11:59AM 34.7930 -111.5840 263° West 428 493 40,000  Level FlightAware
11:59AM 34.7830 -111.6840 263° West 432 497 40,000  Level FlightAware
12:00PM 34.7730 -111.7910 264° West 435 501 40,000  Level FlightAware
12:01PM 34.7650 -111.8700 263° West 437 503 40,000  Level FlightAware
12:02PM 34.7520 -111.9970 263° West 441 507 40,000  Level FlightAware
12:02PM 34.7420 -112.0940 263° West 443 510 40,000  Level FlightAware
12:03PM 34.7260 -112.1930 259° West 445 512 40,000  Level FlightAware
12:04PM 34.7090 -112.3040 259° West 446 513 40,000  Level FlightAware
12:04PM 34.6940 -112.4030 260° West 447 514 40,000  Level FlightAware
12:05PM 34.6770 -112.5160 260° West 447 514 40,000  Level FlightAware
12:06PM 34.6610 -112.6160 259° West 448 516 40,000  Level FlightAware
12:06PM 34.6470 -112.7020 259° West 448 516 40,000  Level FlightAware
12:07PM 34.6320 -112.7960 259° West 448 516 40,000  Level FlightAware
12:08PM 34.6150 -112.9050 259° West 447 514 40,000  Level FlightAware
12:08PM 34.5990 -113.0020 259° West 447 514 40,000  Level FlightAware
12:09PM 34.5800 -113.1200 259° West 447 514 40,000  Level FlightAware
12:10PM 34.5640 -113.2140 258° West 447 514 40,000  Level FlightAware
12:10PM 34.5480 -113.3130 259° West 447 514 40,000  Level FlightAware
12:11PM 34.5290 -113.4260 258° West 448 516 40,000  Level FlightAware
12:12PM 34.5120 -113.5230 258° West 448 516 40,000  Level FlightAware
12:13PM 34.4960 -113.6210 259° West 447 514 40,000  Level FlightAware
12:13PM 34.4770 -113.7320 258° West 448 516 40,000  Level FlightAware
12:14PM 34.4550 -113.8600 258° West 448 516 40,000  Level FlightAware
12:15PM 34.4410 -113.9450 259° West 450 518 40,000  Level FlightAware
12:16PM 34.4180 -114.0740 258° West 452 520 40,000  Level FlightAware
12:16PM 34.3980 -114.1900 258° West 454 522 40,000  Level FlightAware
12:17PM 34.3820 -114.2810 258° West 454 522 40,000  Level FlightAware
12:18PM 34.3640 -114.3870 258° West 456 525 40,000  Level FlightAware
12:18PM 34.3440 -114.4980 258° West 456 525 40,000  Level FlightAware
12:19PM 34.3270 -114.5980 258° West 456 525 40,000  Level FlightAware
12:20PM 34.3070 -114.7020 257° West 456 525 40,000  Level FlightAware
12:21PM 34.2880 -114.8120 258° West 460 529 40,000 -180 Level FlightAware
12:21PM 34.2700 -114.9130 258° West 456 525 39,800 -720 Descending FlightAware
12:22PM 34.2540 -115.0030 258° West 456 525 39,100 -1,140 Descending FlightAware
12:23PM 34.2320 -115.1220 257° West 454 522 38,200 -1,380 Descending FlightAware
12:23PM 34.2140 -115.2200 258° West 458 527 37,200 -1,200 Descending FlightAware
12:24PM 34.1940 -115.3330 258° West 466 536 36,500 -900 Descending FlightAware
12:25PM 34.1740 -115.4380 257° West 466 536 36,000 -780 Descending FlightAware
12:25PM 34.1570 -115.5310 258° West 462 532 35,500 -960 Descending FlightAware
12:26PM 34.1350 -115.6490 257° West 461 531 34,700 -1,020 Descending FlightAware
12:27PM 34.1170 -115.7470 258° West 459 528 34,100 -900 Descending FlightAware
12:27PM 34.0990 -115.8520 258° West 456 525 33,500 -900 Descending FlightAware
12:28PM 34.0840 -115.9610 261° West 452 520 32,900 -1,020 Descending FlightAware
12:29PM 34.0680 -116.0720 260° West 439 505 32,000 -1,680 Descending FlightAware
12:30PM 34.0540 -116.1670 260° West 429 494 30,600 -2,160 Descending FlightAware
12:30PM 34.0380 -116.2720 260° West 418 481 29,000 -1,980 Descending FlightAware
12:31PM 34.0240 -116.3600 259° West 410 472 27,800 -1,920 Descending FlightAware
12:32PM 34.0100 -116.4500 259° West 403 464 26,500 -1,920 Descending FlightAware
12:32PM 34.0000 -116.5480 263° West 394 453 25,100 -1,920 Descending FlightAware
12:33PM 33.9930 -116.6380 265° West 389 448 23,800 -1,920 Descending FlightAware
12:34PM 33.9860 -116.7310 265° West 382 440 22,400 -1,860 Descending FlightAware
12:35PM 33.9790 -116.8160 264° West 377 434 21,200 -1,800 Descending FlightAware
12:35PM 33.9720 -116.9000 264° West 372 428 20,000 -1,740 Descending FlightAware
12:36PM 33.9650 -116.9810 264° West 368 423 18,900 -1,800 Descending FlightAware
12:37PM 33.9570 -117.0750 264° West 365 420 17,500 -1,560 Descending FlightAware
12:37PM 33.9500 -117.1630 265° West 365 420 16,600 -1,320 Descending FlightAware
12:38PM 33.9430 -117.2450 264° West 363 418 15,700 -1,500 Descending FlightAware
12:39PM 33.9360 -117.3230 264° West 360 414 14,600 -1,680 Descending FlightAware
12:39PM 33.9430 -117.4080 276° West 313 360 13,400 -1,380 Descending FlightAware
12:40PM 33.9660 -117.4700 294° West 302 348 12,700 -1,140 Descending FlightAware
12:41PM 33.9900 -117.5380 293° West 298 343 11,800 -1,320 Descending FlightAware
12:42PM 34.0110 -117.6000 292° West 297 342 10,900 -1,200 Descending FlightAware
12:42PM 34.0090 -117.6650 268° West 295 339 10,200 -960 Descending FlightAware
12:43PM 34.0040 -117.7130 263° West 287 330 9,800 -1,140 Descending FlightAware
12:43PM 33.9990 -117.7620 263° West 291 335 9,100 -1,080 Descending FlightAware
12:43PM 33.9980 -117.7770 265° West 295 339 9,100 -900 Level FlightAware
12:44PM 33.9930 -117.8240 263° West 271 312 8,500 -1,320 Descending FlightAware
12:44PM 33.9890 -117.8670 264° West 259 298 7,800 -1,560 Descending FlightAware
12:45PM 33.9850 -117.9050 263° West 260 299 7,100 -1,320 Descending FlightAware
12:45PM 33.9810 -117.9460 263° West 234 269 6,600 -1,080 Descending FlightAware
12:46PM 33.9790 -117.9630 262° West 223 257 6,300 -900 Descending FlightAware
12:46PM 33.9760 -117.9940 263° West 208 239 6,000 -780 Descending FlightAware
12:46PM 33.9730 -118.0280 264° West 204 235 5,600 -780 Descending FlightAware
12:47PM 33.9700 -118.0550 262° West 203 234 5,300 -720 Descending FlightAware
12:47PM 33.9680 -118.0830 265° West 203 234 5,000 -900 Descending FlightAware
12:48PM 33.9640 -118.1180 262° West 205 236 4,500 -1,140 Descending FlightAware
12:48PM 33.9610 -118.1500 264° West 207 238 3,900 -1,140 Descending FlightAware
12:49PM 33.9580 -118.1790 263° West 192 221 3,500 -960 Descending FlightAware
12:49PM 33.9550 -118.2040 262° West 174 200 3,100 -900 Descending FlightAware
12:50PM 33.9520 -118.2340 263° West 172 198 2,600 -900 Descending FlightAware
12:50PM 33.9500 -118.2580 264° West 164 189 2,200 -480 Descending FlightAware
12:51PM 33.9480 -118.2800 264° West 164 189 2,200 -960 Level FlightAware
12:51PM 33.9461 -118.3036 264° West 171 197 1,400 -1,080 Descending Los Angeles Center
12:52PM 33.9414 -118.3533 263° West 161 185 600 -660 Descending Los Angeles Center
12:53PM 33.9364 -118.4050 263° West 152 175 100 -540 Descending Los Angeles Center
12:55PM 33.9333 -118.4000 270° West  Level FlightAware Approximate